Terminal Aerodrome Forecast
Issued by NWS

Home | Current Version | Previous Version | Text Only | Print | Product List | Glossary On
Versions: 1 2 3 4 5 6 7 8 9 10 11 12 13 14 15 16
093
FTUS41 KPBZ 301136
TAFDUJ
TAF
KDUJ 301136Z 3012/0112 09011KT P6SM -SHRA BKN006 OVC015
     FM301400 09012G18KT P6SM VCSH OVC025
     FM010200 10010KT 6SM -SHRA OVC015
     FM010900 09006KT P6SM BKN008=

USA.gov is the U.S. government's official web portal to all federal, state and local government web resources and services.